Time;durP1;ratioP1;P1;durP2;ratioP2;P2;SDS_P1;SDS_P2;PMS_P1;PMS_P2;Temp;Humidity;BMP_temperature;BMP_pressure;BME280_temperature;BME280_humidity;BME280_pressure;Samples;Min_cycle;Max_cycle;Signal;HPM_P1;HPM_P2
2022/11/23 00:01:38;;;;;;;16.50;10.40;;;;;;;-1.02;99.13;95521.84;105297;1304;25659;-77
2022/11/23 00:04:12;;;;;;;14.40;9.00;;;;;;;-0.94;99.23;95520.09;105218;1288;22524;-77
2022/11/23 00:06:43;;;;;;;15.30;10.20;;;;;;;-0.89;99.45;95517.98;105261;1297;22466;-77
2022/11/23 00:09:16;;;;;;;11.20;7.10;;;;;;;-0.87;99.24;95517.38;105265;1282;22506;-76
2022/11/23 00:11:47;;;;;;;9.40;6.70;;;;;;;-0.87;99.11;95513.78;105287;1295;22474;-76
2022/11/23 00:14:18;;;;;;;11.20;6.70;;;;;;;-0.87;99.16;95514.20;105209;1305;23279;-77
2022/11/23 00:16:49;;;;;;;16.50;11.10;;;;;;;-0.86;99.03;95512.98;105118;1304;22563;-77
2022/11/23 00:19:23;;;;;;;17.70;12.10;;;;;;;-0.82;99.31;95509.98;105085;1297;22507;-77
2022/11/23 00:21:54;;;;;;;21.10;12.90;;;;;;;-0.78;99.18;95510.16;105145;1299;22510;-77
2022/11/23 00:24:25;;;;;;;20.90;13.10;;;;;;;-0.69;99.70;95504.70;105075;1304;22468;-77
2022/11/23 00:26:56;;;;;;;15.70;10.10;;;;;;;-0.66;99.43;95508.35;105254;1303;22470;-77
2022/11/23 00:29:27;;;;;;;14.70;10.00;;;;;;;-0.66;99.24;95512.09;105299;1279;22837;-77
2022/11/23 00:31:59;;;;;;;13.80;8.30;;;;;;;-0.67;99.18;95516.55;105289;1286;22574;-77
2022/11/23 00:34:30;;;;;;;10.20;6.00;;;;;;;-0.68;98.98;95525.02;105247;1297;26378;-77
2022/11/23 00:37:01;;;;;;;11.90;6.80;;;;;;;-0.67;98.97;95526.96;105126;1296;22485;-77
2022/11/23 00:39:32;;;;;;;11.80;7.50;;;;;;;-0.64;99.37;95529.52;105249;1288;22562;-77
2022/11/23 00:42:04;;;;;;;18.00;11.60;;;;;;;-0.62;99.51;95529.91;105274;1304;22473;-77
2022/11/23 00:44:35;;;;;;;14.40;10.70;;;;;;;-0.56;99.20;95531.05;105244;1304;22920;-77
2022/11/23 00:47:07;;;;;;;16.20;9.90;;;;;;;-0.53;99.14;95525.85;105214;1305;22728;-77
2022/11/23 00:49:39;;;;;;;17.90;11.70;;;;;;;-0.54;98.73;95528.80;105139;1304;25006;-77
2022/11/23 00:52:10;;;;;;;17.50;12.00;;;;;;;-0.54;99.01;95524.11;105216;1304;22725;-77
2022/11/23 00:54:41;;;;;;;15.80;9.90;;;;;;;-0.53;98.71;95522.41;105137;1296;23434;-77
2022/11/23 00:57:12;;;;;;;11.70;7.80;;;;;;;-0.53;98.52;95520.73;105297;1304;22569;-77
2022/11/23 00:59:43;;;;;;;10.40;6.80;;;;;;;-0.53;98.60;95523.02;105259;1302;23862;-77
2022/11/23 01:02:17;;;;;;;9.90;5.50;;;;;;;-0.54;98.34;95528.48;105271;1304;25139;-77
2022/11/23 01:04:48;;;;;;;10.20;6.10;;;;;;;-0.65;97.97;95529.55;105158;1293;26024;-77
2022/11/23 01:07:21;;;;;;;10.40;6.30;;;;;;;-0.70;98.03;95538.72;105123;1287;23286;-77
2022/11/23 01:09:53;;;;;;;10.00;6.70;;;;;;;-0.68;98.45;95538.29;105140;1287;22482;-77
2022/11/23 01:12:24;;;;;;;8.20;5.60;;;;;;;-0.67;98.60;95539.04;105248;1295;22710;-77
2022/11/23 01:14:56;;;;;;;15.60;9.30;;;;;;;-0.65;98.56;95535.84;105120;1302;22696;-77
2022/11/23 01:17:27;;;;;;;13.30;8.00;;;;;;;-0.63;98.70;95538.67;105219;1287;22519;-77
2022/11/23 01:19:58;;;;;;;11.20;6.60;;;;;;;-0.62;98.47;95538.75;105138;1287;24354;-77
2022/11/23 01:22:29;;;;;;;12.20;6.90;;;;;;;-0.61;98.49;95536.90;105193;1303;25256;-77
2022/11/23 01:25:00;;;;;;;10.80;6.50;;;;;;;-0.58;98.60;95537.09;105190;1295;22463;-77
2022/11/23 01:27:32;;;;;;;12.20;7.70;;;;;;;-0.57;98.43;95535.23;105200;1285;22938;-77
2022/11/23 01:30:06;;;;;;;12.90;7.30;;;;;;;-0.55;98.43;95538.31;105174;1290;23251;-78
2022/11/23 01:32:37;;;;;;;10.80;6.60;;;;;;;-0.55;98.59;95538.00;105160;1304;25374;-78
2022/11/23 01:35:09;;;;;;;11.40;7.10;;;;;;;-0.54;98.71;95535.14;105193;1296;22812;-78
2022/11/23 01:37:40;;;;;;;11.50;7.60;;;;;;;-0.54;98.51;95536.25;105185;1296;25373;-78
2022/11/23 01:40:13;;;;;;;11.10;6.60;;;;;;;-0.54;98.48;95530.67;105304;1305;25394;-78
2022/11/23 01:42:53;;;;;;;14.20;9.80;;;;;;;-0.54;98.31;95521.52;105203;1301;22559;-78
2022/11/23 01:45:41;;;;;;;10.60;7.10;;;;;;;-0.54;98.37;95522.28;105293;1302;23237;-77
2022/11/23 01:48:18;;;;;;;14.60;9.20;;;;;;;-0.55;98.25;95517.79;105195;1291;24328;-78
2022/11/23 01:50:52;;;;;;;15.20;9.80;;;;;;;-0.56;98.29;95517.95;104463;1304;1080867;-78
2022/11/23 01:53:24;;;;;;;13.80;9.00;;;;;;;-0.56;98.39;95524.60;105169;1304;24740;-78
2022/11/23 01:55:59;;;;;;;13.90;9.00;;;;;;;-0.56;98.25;95527.27;105197;1302;22468;-78
2022/11/23 01:58:36;;;;;;;13.60;8.50;;;;;;;-0.59;98.16;95525.10;105182;1296;22847;-78
2022/11/23 02:01:08;;;;;;;11.70;7.60;;;;;;;-0.62;98.41;95523.29;105214;1288;22471;-78
2022/11/23 02:03:40;;;;;;;15.00;10.00;;;;;;;-0.62;98.20;95516.05;105257;1297;22736;-78
2022/11/23 02:06:15;;;;;;;14.30;10.20;;;;;;;-0.61;98.73;95511.27;105222;1304;22538;-78
2022/11/23 02:08:48;;;;;;;14.40;8.60;;;;;;;-0.63;98.52;95508.96;105293;1304;22482;-78
2022/11/23 02:11:19;;;;;;;12.30;7.60;;;;;;;-0.65;98.49;95507.21;105254;1288;22513;-78
2022/11/23 02:13:51;;;;;;;13.00;8.00;;;;;;;-0.67;98.64;95511.98;105219;1274;24334;-78
2022/11/23 02:16:23;;;;;;;10.80;6.60;;;;;;;-0.68;98.72;95508.52;105234;1303;23401;-78
2022/11/23 02:18:55;;;;;;;9.90;6.40;;;;;;;-0.69;98.99;95505.59;105310;1294;22478;-78
2022/11/23 02:21:26;;;;;;;13.80;8.90;;;;;;;-0.71;98.78;95507.57;105303;1295;22526;-78
2022/11/23 02:24:05;;;;;;;16.90;9.70;;;;;;;-0.70;99.26;95506.05;105258;1284;25405;-78
2022/11/23 02:26:37;;;;;;;17.10;11.20;;;;;;;-0.68;99.22;95509.73;105216;1295;22477;-78
2022/11/23 02:29:13;;;;;;;13.70;8.70;;;;;;;-0.66;99.19;95504.29;105224;1289;22548;-78
2022/11/23 02:31:44;;;;;;;15.90;10.00;;;;;;;-0.65;99.79;95503.77;105254;1281;22570;-78
2022/11/23 02:34:16;;;;;;;15.10;9.50;;;;;;;-0.65;99.37;95505.13;105269;1296;22460;-78
2022/11/23 02:36:51;;;;;;;13.00;9.00;;;;;;;-0.68;99.23;95504.83;105222;1283;22498;-78
2022/11/23 02:39:30;;;;;;;11.40;6.90;;;;;;;-0.70;99.00;95499.84;105258;1281;22603;-78
2022/11/23 02:42:01;;;;;;;11.20;7.10;;;;;;;-0.76;98.84;95498.11;105232;1283;24433;-78
2022/11/23 02:44:42;;;;;;;10.00;7.00;;;;;;;-0.81;98.98;95501.12;105118;1304;23860;-77
2022/11/23 02:47:13;;;;;;;11.60;8.00;;;;;;;-0.85;98.96;95499.31;105243;1297;22513;-78
2022/11/23 02:49:48;;;;;;;11.70;7.30;;;;;;;-0.84;99.01;95496.67;105163;1287;22571;-78
2022/11/23 02:52:20;;;;;;;12.10;8.50;;;;;;;-0.83;99.12;95500.09;105309;1303;22458;-78
2022/11/23 02:54:51;;;;;;;15.80;10.10;;;;;;;-0.81;99.36;95493.72;105198;1295;22531;-78
2022/11/23 02:57:23;;;;;;;14.70;9.80;;;;;;;-0.78;99.45;95496.69;105264;1303;22700;-78
2022/11/23 02:59:54;;;;;;;13.80;9.10;;;;;;;-0.76;99.31;95495.47;105204;1281;22476;-78
2022/11/23 03:02:25;;;;;;;11.00;7.50;;;;;;;-0.74;99.08;95502.00;105299;1304;23756;-77
2022/11/23 03:04:56;;;;;;;13.70;7.90;;;;;;;-0.77;99.00;95499.77;105329;1295;22485;-76
2022/11/23 03:07:27;;;;;;;11.70;7.00;;;;;;;-0.84;98.91;95502.51;105291;1304;22508;-77
2022/11/23 03:09:59;;;;;;;13.50;7.40;;;;;;;-0.84;99.29;95501.52;105235;1296;22486;-77
2022/11/23 03:12:30;;;;;;;12.60;7.80;;;;;;;-0.82;99.59;95495.91;105255;1303;22537;-77
2022/11/23 03:15:01;;;;;;;12.40;6.90;;;;;;;-0.77;99.63;95496.34;105197;1281;22504;-77
2022/11/23 03:17:32;;;;;;;10.00;6.80;;;;;;;-0.72;99.68;95495.06;105269;1288;22498;-77
2022/11/23 03:20:04;;;;;;;16.60;9.30;;;;;;;-0.73;99.30;95500.10;105118;1302;22464;-77
2022/11/23 03:22:35;;;;;;;16.90;9.50;;;;;;;-0.84;98.95;95502.30;105159;1289;22477;-77
2022/11/23 03:25:09;;;;;;;14.50;8.50;;;;;;;-0.85;99.12;95503.16;105231;1297;22630;-77
2022/11/23 03:27:41;;;;;;;14.00;8.70;;;;;;;-0.88;98.77;95503.84;105112;1297;22489;-77
2022/11/23 03:30:13;;;;;;;12.80;7.00;;;;;;;-0.92;98.64;95506.58;105152;1302;25256;-77
2022/11/23 03:32:44;;;;;;;11.40;7.00;;;;;;;-0.92;98.82;95506.21;105214;1304;22475;-77
2022/11/23 03:35:15;;;;;;;11.30;7.60;;;;;;;-0.93;99.04;95507.55;105202;1288;22457;-76
2022/11/23 03:37:49;;;;;;;11.70;7.40;;;;;;;-0.91;99.08;95502.34;105264;1304;25475;-76
2022/11/23 03:40:20;;;;;;;14.60;9.50;;;;;;;-0.89;99.21;95498.56;105250;1304;22480;-77
2022/11/23 03:42:54;;;;;;;12.80;7.40;;;;;;;-0.87;99.08;95494.01;105240;1293;22418;-76
2022/11/23 03:45:25;;;;;;;14.00;7.40;;;;;;;-0.89;98.87;95491.95;105134;1288;26258;-76
2022/11/23 03:47:57;;;;;;;12.80;8.40;;;;;;;-0.89;99.15;95492.98;105151;1304;22547;-77
2022/11/23 03:50:28;;;;;;;14.10;9.80;;;;;;;-0.87;99.36;95495.92;105154;1287;22556;-76
2022/11/23 03:53:00;;;;;;;13.80;7.80;;;;;;;-0.85;99.15;95495.88;105148;1280;22462;-76
2022/11/23 03:55:31;;;;;;;13.90;7.90;;;;;;;-0.85;99.22;95502.80;105168;1273;22473;-76
2022/11/23 03:58:04;;;;;;;13.80;8.40;;;;;;;-0.85;99.10;95506.80;105258;1304;22466;-76
2022/11/23 04:00:36;;;;;;;13.20;8.10;;;;;;;-0.84;99.22;95504.96;105218;1288;22436;-76
2022/11/23 04:03:07;;;;;;;13.90;8.90;;;;;;;-0.85;98.92;95504.97;105213;1290;22516;-76
2022/11/23 04:05:41;;;;;;;13.30;7.90;;;;;;;-0.86;98.67;95501.31;105204;1293;22465;-77
2022/11/23 04:08:13;;;;;;;13.80;8.60;;;;;;;-0.85;99.12;95503.04;105271;1305;22510;-77
2022/11/23 04:10:49;;;;;;;13.70;8.40;;;;;;;-0.85;98.91;95504.52;105248;1304;24243;-77
2022/11/23 04:13:20;;;;;;;13.80;8.20;;;;;;;-0.91;98.87;95498.44;105244;1301;25968;-77
2022/11/23 04:15:52;;;;;;;12.50;8.50;;;;;;;-0.91;98.99;95497.90;105170;1304;22474;-77
2022/11/23 04:18:23;;;;;;;12.40;8.40;;;;;;;-0.88;99.26;95493.95;105179;1304;22465;-77
2022/11/23 04:20:54;;;;;;;12.00;8.10;;;;;;;-0.85;99.23;95490.60;105256;1296;22473;-77
2022/11/23 04:23:25;;;;;;;14.10;7.90;;;;;;;-0.84;99.39;95490.95;105192;1281;23280;-77
2022/11/23 04:25:58;;;;;;;11.40;7.00;;;;;;;-0.82;99.14;95488.10;105226;1304;22494;-77
2022/11/23 04:28:32;;;;;;;14.70;9.30;;;;;;;-0.79;99.36;95483.03;105151;1296;22494;-76
2022/11/23 04:31:03;;;;;;;11.90;7.10;;;;;;;-0.77;99.47;95481.24;105197;1305;22481;-77
2022/11/23 04:33:34;;;;;;;12.50;7.70;;;;;;;-0.76;99.03;95476.95;105238;1296;25218;-77
2022/11/23 04:36:11;;;;;;;13.50;8.30;;;;;;;-0.74;99.14;95473.70;105228;1304;23851;-77
2022/11/23 04:38:44;;;;;;;12.40;8.40;;;;;;;-0.71;99.24;95473.84;105208;1291;25287;-77
2022/11/23 04:41:16;;;;;;;11.20;7.50;;;;;;;-0.71;99.04;95478.79;105228;1304;22474;-77
2022/11/23 04:43:49;;;;;;;12.10;7.90;;;;;;;-0.71;98.90;95477.23;105251;1304;22466;-76
2022/11/23 04:46:21;;;;;;;12.20;8.40;;;;;;;-0.69;99.15;95484.66;105144;1303;22594;-76
2022/11/23 04:48:54;;;;;;;10.60;6.40;;;;;;;-0.68;99.09;95484.27;105125;1294;22467;-77
2022/11/23 04:51:26;;;;;;;11.10;7.10;;;;;;;-0.67;99.05;95484.23;105127;1275;25380;-76
2022/11/23 04:53:58;;;;;;;12.00;7.80;;;;;;;-0.67;99.27;95485.02;105051;1284;22471;-76
2022/11/23 04:56:30;;;;;;;13.50;9.20;;;;;;;-0.68;98.92;95491.30;105233;1288;22574;-77
2022/11/23 04:59:01;;;;;;;14.30;9.80;;;;;;;-0.73;98.92;95487.29;105290;1303;22580;-76
2022/11/23 05:01:33;;;;;;;13.20;8.90;;;;;;;-0.79;98.99;95478.61;105297;1282;23715;-77
2022/11/23 05:04:05;;;;;;;15.10;9.20;;;;;;;-0.80;98.83;95477.88;105278;1284;23740;-77
2022/11/23 05:06:38;;;;;;;13.10;9.30;;;;;;;-0.82;98.87;95479.08;105280;1303;24420;-77
2022/11/23 05:09:10;;;;;;;15.20;9.70;;;;;;;-0.96;98.68;95483.35;105292;1303;22542;-77
2022/11/23 05:11:44;;;;;;;16.40;11.20;;;;;;;-1.16;98.29;95482.73;105245;1288;22466;-77
2022/11/23 05:14:15;;;;;;;20.50;12.60;;;;;;;-1.28;98.58;95479.80;105299;1278;25272;-76
2022/11/23 05:16:46;;;;;;;25.20;16.50;;;;;;;-1.34;98.84;95480.79;105276;1295;22471;-76
2022/11/23 05:19:17;;;;;;;25.60;17.50;;;;;;;-1.39;99.00;95479.73;105301;1302;22957;-76
2022/11/23 05:21:48;;;;;;;23.50;15.60;;;;;;;-1.41;98.95;95483.48;105286;1303;22458;-77
2022/11/23 05:24:22;;;;;;;24.30;16.70;;;;;;;-1.53;98.88;95492.24;105211;1279;22492;-76
2022/11/23 05:26:53;;;;;;;27.00;18.20;;;;;;;-1.69;98.64;95498.33;105227;1305;22698;-77
2022/11/23 05:29:25;;;;;;;29.80;18.90;;;;;;;-1.76;99.16;95504.66;105211;1304;22516;-77
2022/11/23 05:31:57;;;;;;;25.90;17.80;;;;;;;-1.76;99.35;95512.14;105195;1288;22464;-76
2022/11/23 05:34:28;;;;;;;25.60;18.50;;;;;;;-1.73;99.53;95511.00;105246;1297;22484;-76
2022/11/23 05:37:00;;;;;;;28.00;19.50;;;;;;;-1.68;99.67;95514.82;105246;1300;22614;-77
2022/11/23 05:39:31;;;;;;;30.70;20.60;;;;;;;-1.61;99.85;95514.33;105262;1304;23209;-77
2022/11/23 05:42:02;;;;;;;28.90;21.10;;;;;;;-1.57;99.76;95515.14;105282;1302;24504;-76
2022/11/23 05:44:33;;;;;;;29.30;20.60;;;;;;;-1.54;99.79;95512.58;105082;1287;22470;-76
2022/11/23 05:47:05;;;;;;;31.40;21.80;;;;;;;-1.49;100.00;95517.52;105211;1304;22511;-76
2022/11/23 05:49:37;;;;;;;33.50;21.80;;;;;;;-1.45;99.79;95520.95;105114;1305;22489;-77
2022/11/23 05:52:08;;;;;;;34.00;23.50;;;;;;;-1.45;99.85;95527.39;105220;1283;22510;-77
2022/11/23 05:54:39;;;;;;;33.80;24.40;;;;;;;-1.56;99.34;95533.79;105049;1305;22642;-76
2022/11/23 05:57:10;;;;;;;34.00;24.50;;;;;;;-1.60;99.53;95543.73;105140;1303;25213;-76
2022/11/23 05:59:42;;;;;;;36.70;26.40;;;;;;;-1.55;99.86;95544.52;105237;1299;22483;-77
2022/11/23 06:02:13;;;;;;;41.20;27.60;;;;;;;-1.49;99.86;95546.45;105163;1304;22825;-77
2022/11/23 06:04:46;;;;;;;38.20;27.30;;;;;;;-1.47;99.85;95542.17;105185;1303;22671;-76
2022/11/23 06:07:18;;;;;;;38.50;26.40;;;;;;;-1.44;99.84;95550.55;105153;1305;24227;-77
2022/11/23 06:09:49;;;;;;;38.00;27.20;;;;;;;-1.49;99.72;95551.49;105247;1289;24263;-77
2022/11/23 06:12:20;;;;;;;43.20;29.50;;;;;;;-1.57;99.82;95553.55;105292;1305;22468;-77
2022/11/23 06:14:51;;;;;;;43.80;31.40;;;;;;;-1.65;99.58;95553.11;105168;1304;22636;-76
2022/11/23 06:17:23;;;;;;;46.70;31.40;;;;;;;-1.71;99.59;95552.83;105274;1304;25925;-76
2022/11/23 06:19:54;;;;;;;47.20;32.70;;;;;;;-1.66;99.95;95550.37;105279;1295;24073;-76
2022/11/23 06:22:27;;;;;;;46.60;30.20;;;;;;;-1.58;99.99;95547.13;105262;1300;25215;-76
2022/11/23 06:25:00;;;;;;;44.70;30.70;;;;;;;-1.54;99.99;95549.75;105231;1304;22837;-76
2022/11/23 06:27:32;;;;;;;50.90;33.00;;;;;;;-1.59;99.95;95556.98;105200;1303;22485;-77
2022/11/23 06:30:04;;;;;;;57.10;33.20;;;;;;;-1.69;99.89;95563.84;105213;1296;22454;-76
2022/11/23 06:32:35;;;;;;;52.20;34.90;;;;;;;-1.76;99.97;95566.24;105241;1288;24077;-77
2022/11/23 06:35:07;;;;;;;50.50;33.40;;;;;;;-1.81;99.98;95570.80;105250;1282;24220;-76
2022/11/23 06:37:38;;;;;;;52.70;33.70;;;;;;;-1.87;100.00;95564.02;105242;1296;22476;-77
2022/11/23 06:40:12;;;;;;;60.00;34.60;;;;;;;-1.88;100.00;95559.44;105165;1304;22903;-76
2022/11/23 06:42:43;;;;;;;56.30;34.80;;;;;;;-1.85;100.00;95558.75;105271;1304;22636;-76
2022/11/23 06:45:15;;;;;;;60.70;35.20;;;;;;;-1.89;100.00;95554.31;105195;1281;22459;-76
2022/11/23 06:47:46;;;;;;;58.80;32.80;;;;;;;-1.96;100.00;95562.98;105256;1287;23835;-76
2022/11/23 06:50:18;;;;;;;57.00;33.90;;;;;;;-2.01;100.00;95561.62;105276;1296;22564;-76
2022/11/23 06:52:55;;;;;;;63.80;34.00;;;;;;;-2.05;100.00;95559.45;105226;1304;22902;-77
2022/11/23 06:55:27;;;;;;;56.10;32.70;;;;;;;-2.08;100.00;95559.48;105087;1304;22496;-76
2022/11/23 06:57:59;;;;;;;65.30;31.60;;;;;;;-2.13;100.00;95558.80;105256;1286;24412;-77
2022/11/23 07:00:31;;;;;;;62.20;35.90;;;;;;;-2.12;100.00;95558.24;105231;1294;22602;-77
2022/11/23 07:03:04;;;;;;;72.20;35.10;;;;;;;-2.06;100.00;95559.52;105217;1288;22495;-77
2022/11/23 07:05:40;;;;;;;54.50;31.90;;;;;;;-2.01;100.00;95558.23;105191;1274;22845;-77
2022/11/23 07:08:11;;;;;;;59.30;30.90;;;;;;;-2.01;100.00;95555.07;105180;1305;22481;-77
2022/11/23 07:10:42;;;;;;;57.40;31.50;;;;;;;-2.02;100.00;95554.84;105162;1305;22481;-76
2022/11/23 07:13:15;;;;;;;59.00;31.30;;;;;;;-2.01;100.00;95553.30;105192;1304;25860;-76
2022/11/23 07:15:46;;;;;;;60.50;32.00;;;;;;;-2.00;100.00;95554.58;105222;1302;22468;-77
2022/11/23 07:18:17;;;;;;;56.60;32.70;;;;;;;-2.02;100.00;95551.41;105164;1303;22559;-76
2022/11/23 07:20:48;;;;;;;64.50;30.50;;;;;;;-2.02;100.00;95552.30;105239;1288;25377;-76
2022/11/23 07:23:19;;;;;;;47.30;28.40;;;;;;;-2.00;100.00;95554.16;105181;1281;24069;-76
2022/11/23 07:25:50;;;;;;;54.60;28.90;;;;;;;-2.02;100.00;95558.20;105140;1303;22496;-76
2022/11/23 07:28:22;;;;;;;57.50;32.50;;;;;;;-2.06;100.00;95561.88;105091;1290;24492;-77
2022/11/23 07:30:57;;;;;;;52.60;26.70;;;;;;;-2.04;100.00;95550.64;105206;1291;25405;-76
2022/11/23 07:33:28;;;;;;;47.00;27.40;;;;;;;-1.99;100.00;95548.97;105116;1305;22506;-77
2022/11/23 07:36:02;;;;;;;52.60;26.50;;;;;;;-2.01;100.00;95548.07;105087;1305;27875;-76
2022/11/23 07:38:33;;;;;;;39.00;23.50;;;;;;;-2.00;100.00;95537.16;105147;1305;22524;-76
2022/11/23 07:41:07;;;;;;;59.80;27.50;;;;;;;-2.01;100.00;95538.56;105104;1305;22489;-76
2022/11/23 07:43:39;;;;;;;54.00;27.70;;;;;;;-2.04;100.00;95541.26;105144;1283;22625;-76
2022/11/23 07:46:12;;;;;;;37.00;22.70;;;;;;;-2.03;100.00;95540.21;105075;1290;25374;-76
2022/11/23 07:48:43;;;;;;;40.40;24.60;;;;;;;-2.03;100.00;95542.45;105131;1293;22482;-76
2022/11/23 07:51:18;;;;;;;39.50;23.80;;;;;;;-2.10;100.00;95549.83;105088;1297;22484;-77
2022/11/23 07:53:49;;;;;;;54.10;28.50;;;;;;;-2.18;100.00;95557.70;105144;1297;22513;-76
2022/11/23 07:56:21;;;;;;;45.70;26.20;;;;;;;-2.21;100.00;95556.42;105090;1304;22493;-77
2022/11/23 07:58:52;;;;;;;48.80;25.50;;;;;;;-2.16;100.00;95560.34;105095;1290;22489;-76
2022/11/23 08:01:23;;;;;;;57.20;27.90;;;;;;;-2.07;100.00;95559.77;105118;1305;22539;-76
2022/11/23 08:03:55;;;;;;;53.40;27.00;;;;;;;-2.01;100.00;95558.70;105092;1305;22530;-76
2022/11/23 08:06:29;;;;;;;49.60;28.30;;;;;;;-1.96;100.00;95555.88;105203;1305;22484;-76
2022/11/23 08:09:00;;;;;;;57.70;28.10;;;;;;;-1.91;100.00;95557.90;105227;1296;22504;-76
2022/11/23 08:11:32;;;;;;;45.40;25.50;;;;;;;-1.85;100.00;95552.15;105117;1298;23294;-76
2022/11/23 08:14:03;;;;;;;53.00;26.60;;;;;;;-1.81;100.00;95552.74;105177;1304;22489;-76
2022/11/23 08:16:35;;;;;;;63.90;30.40;;;;;;;-1.76;100.00;95550.95;105181;1296;25924;-76
2022/11/23 08:19:07;;;;;;;43.00;22.90;;;;;;;-1.72;100.00;95547.70;105163;1305;22474;-76
2022/11/23 08:21:40;;;;;;;51.70;26.20;;;;;;;-1.77;100.00;95557.63;105099;1296;22469;-77
2022/11/23 08:24:12;;;;;;;48.90;27.70;;;;;;;-1.88;100.00;95559.01;105125;1281;22465;-77
2022/11/23 08:26:43;;;;;;;43.90;26.10;;;;;;;-1.89;100.00;95552.44;105088;1303;22479;-76
2022/11/23 08:29:15;;;;;;;45.00;26.30;;;;;;;-1.86;100.00;95556.56;105204;1293;25378;-76
2022/11/23 08:31:47;;;;;;;51.00;28.40;;;;;;;-1.88;100.00;95559.02;105128;1305;22576;-77
2022/11/23 08:34:19;;;;;;;57.50;28.70;;;;;;;-1.87;100.00;95555.86;105118;1290;22488;-76
2022/11/23 08:36:50;;;;;;;59.70;29.30;;;;;;;-1.84;100.00;95557.05;105239;1279;22835;-76
2022/11/23 08:39:21;;;;;;;46.20;28.60;;;;;;;-1.85;100.00;95554.15;105081;1281;22477;-77
2022/11/23 08:41:53;;;;;;;64.40;31.20;;;;;;;-1.86;100.00;95553.23;105118;1281;22546;-76
2022/11/23 08:44:24;;;;;;;60.50;28.80;;;;;;;-1.84;100.00;95550.91;105073;1304;22480;-76
2022/11/23 08:46:56;;;;;;;57.40;29.80;;;;;;;-1.80;100.00;95550.98;105222;1290;22798;-76
2022/11/23 08:49:28;;;;;;;70.30;29.30;;;;;;;-1.76;100.00;95551.89;105119;1287;25929;-76
2022/11/23 08:51:59;;;;;;;61.60;29.90;;;;;;;-1.71;100.00;95547.36;105109;1277;22454;-76
2022/11/23 08:54:31;;;;;;;55.20;29.20;;;;;;;-1.66;100.00;95541.83;105059;1281;22462;-76
2022/11/23 08:57:02;;;;;;;63.00;32.00;;;;;;;-1.65;100.00;95545.55;105225;1305;25354;-77
2022/11/23 08:59:34;;;;;;;54.20;33.50;;;;;;;-1.68;100.00;95545.17;105061;1295;24272;-76
2022/11/23 09:02:05;;;;;;;72.60;33.70;;;;;;;-1.65;100.00;95546.23;105179;1280;22538;-76
2022/11/23 09:04:37;;;;;;;56.50;32.90;;;;;;;-1.64;100.00;95543.23;105141;1289;22943;-76
2022/11/23 09:07:08;;;;;;;61.80;33.40;;;;;;;-1.59;100.00;95538.48;105146;1305;22503;-76
2022/11/23 09:09:39;;;;;;;63.00;33.30;;;;;;;-1.55;100.00;95538.84;105096;1305;25404;-76
2022/11/23 09:12:13;;;;;;;68.60;35.20;;;;;;;-1.51;100.00;95541.73;105098;1284;22467;-76
2022/11/23 09:14:44;;;;;;;61.90;28.90;;;;;;;-1.48;100.00;95544.40;105085;1293;23771;-76
2022/11/23 09:17:15;;;;;;;60.20;32.80;;;;;;;-1.51;100.00;95540.29;105097;1277;22534;-76
2022/11/23 09:19:47;;;;;;;57.10;32.30;;;;;;;-1.47;100.00;95536.14;105133;1293;24949;-76
2022/11/23 09:22:18;;;;;;;62.90;33.30;;;;;;;-1.49;100.00;95535.33;105090;1296;22627;-76
2022/11/23 09:24:51;;;;;;;64.60;33.00;;;;;;;-1.47;100.00;95541.35;105058;1305;23955;-76
2022/11/23 09:27:23;;;;;;;86.50;36.20;;;;;;;-1.45;100.00;95537.58;105171;1296;25377;-76
2022/11/23 09:29:54;;;;;;;77.80;37.10;;;;;;;-1.43;100.00;95537.46;105104;1305;22478;-76
2022/11/23 09:32:26;;;;;;;75.10;35.80;;;;;;;-1.41;100.00;95537.29;105124;1305;22667;-77
2022/11/23 09:34:58;;;;;;;65.20;35.00;;;;;;;-1.46;100.00;95534.40;105063;1304;22903;-77
2022/11/23 09:37:32;;;;;;;116.50;36.60;;;;;;;-1.45;100.00;95528.74;105077;1302;22477;-76
2022/11/23 09:40:06;;;;;;;76.90;35.40;;;;;;;-1.43;100.00;95535.23;105107;1305;22651;-76
2022/11/23 09:43:04;;;;;;;64.40;35.20;;;;;;;-1.43;100.00;95532.38;105136;1305;22470;-76
2022/11/23 09:45:40;;;;;;;77.10;35.80;;;;;;;-1.40;100.00;95531.30;105059;1305;26031;-76
2022/11/23 09:48:32;;;;;;;68.10;37.50;;;;;;;-1.36;100.00;95533.78;105091;1305;22469;-76
2022/11/23 09:51:15;;;;;;;68.90;34.90;;;;;;;-1.34;100.00;95529.75;105117;1305;22474;-76
2022/11/23 09:53:53;;;;;;;74.10;37.70;;;;;;;-1.33;100.00;95524.83;105108;1287;23247;-76
2022/11/23 09:56:27;;;;;;;73.60;33.70;;;;;;;-1.29;100.00;95523.76;105216;1302;22932;-76
2022/11/23 09:59:02;;;;;;;72.40;38.50;;;;;;;-1.30;100.00;95523.80;105261;1285;25390;-76
2022/11/23 10:01:33;;;;;;;73.20;36.00;;;;;;;-1.30;100.00;95524.68;105232;1303;22573;-77
2022/11/23 10:04:07;;;;;;;61.60;34.30;;;;;;;-1.29;100.00;95518.46;105243;1301;23678;-77
2022/11/23 10:06:42;;;;;;;69.50;34.30;;;;;;;-1.27;100.00;95516.27;105243;1306;22469;-77
2022/11/23 10:09:34;;;;;;;62.60;34.00;;;;;;;-1.27;100.00;95514.72;105146;1305;24282;-76
2022/11/23 10:12:24;;;;;;;85.30;35.20;;;;;;;-1.24;100.00;95513.90;105105;1306;22473;-76
2022/11/23 10:15:13;;;;;;;69.30;34.50;;;;;;;-1.20;100.00;95518.54;105145;1278;23263;-76
2022/11/23 10:18:00;;;;;;;87.60;35.60;;;;;;;-1.22;100.00;95512.05;105082;1290;22503;-76
2022/11/23 10:20:50;;;;;;;65.30;33.80;;;;;;;-1.28;100.00;95515.69;105108;1305;22816;-76
2022/11/23 10:23:26;;;;;;;;;;;;;;;-1.23;100.00;95509.60;105144;1305;22691;-76
2022/11/23 10:25:59;;;;;;;66.00;32.70;;;;;;;-1.20;100.00;95504.61;105137;1300;24946;-76
2022/11/23 10:28:32;;;;;;;58.60;31.50;;;;;;;-1.16;100.00;95505.77;105254;1296;22442;-76
2022/11/23 10:31:13;;;;;;;63.90;30.70;;;;;;;-1.11;100.00;95503.37;105198;1275;22786;-76
2022/11/23 10:33:54;;;;;;;55.70;29.60;;;;;;;-1.09;100.00;95507.58;105077;1300;25598;-76
2022/11/23 10:36:28;;;;;;;58.20;32.70;;;;;;;-1.13;100.00;95506.39;105231;1298;22913;-76
2022/11/23 10:39:02;;;;;;;49.00;29.00;;;;;;;-1.10;100.00;95507.39;105088;1283;22468;-76
2022/11/23 10:41:33;;;;;;;48.90;27.00;;;;;;;-1.06;100.00;95504.39;105144;1305;22484;-76
2022/11/23 10:44:12;;;;;;;53.20;29.50;;;;;;;-1.03;100.00;95504.96;105065;1297;22484;-76
2022/11/23 10:46:44;;;;;;;52.40;31.00;;;;;;;-0.99;100.00;95497.18;105086;1286;22795;-77
2022/11/23 10:49:21;;;;;;;50.50;29.60;;;;;;;-0.95;100.00;95492.59;105234;1296;25389;-76
2022/11/23 10:51:58;;;;;;;50.00;28.30;;;;;;;-0.93;100.00;95493.30;105122;1293;22463;-76
2022/11/23 10:54:34;;;;;;;49.50;29.40;;;;;;;-0.92;100.00;95487.59;105141;1304;22486;-76
2022/11/23 10:57:29;;;;;;;51.90;29.50;;;;;;;-0.90;100.00;95484.14;105271;1304;22505;-76
2022/11/23 11:00:04;;;;;;;50.80;28.10;;;;;;;-0.87;100.00;95478.88;105207;1297;22473;-76
2022/11/23 11:02:43;;;;;;;46.60;27.80;;;;;;;-0.84;100.00;95487.11;105180;1293;22463;-76
2022/11/23 11:05:25;;;;;;;49.10;29.30;;;;;;;-0.83;100.00;95490.20;105130;1282;22833;-77
2022/11/23 11:07:58;;;;;;;47.20;29.20;;;;;;;-0.80;100.00;95491.41;105175;1287;23827;-77
2022/11/23 11:10:41;;;;;;;45.40;28.90;;;;;;;-0.78;100.00;95496.30;105118;1296;22600;-77
2022/11/23 11:13:41;;;;;;;49.30;28.90;;;;;;;-0.80;100.00;95491.08;105247;1296;22469;-77
2022/11/23 11:16:25;;;;;;;43.10;27.70;;;;;;;-0.75;100.00;95491.21;105227;1287;23902;-77
2022/11/23 11:18:56;;;;;;;44.40;28.70;;;;;;;-0.73;100.00;95485.63;105114;1281;25410;-77
2022/11/23 11:21:33;;;;;;;46.00;29.30;;;;;;;-0.71;100.00;95483.16;105124;1297;22851;-77
2022/11/23 11:24:14;;;;;;;45.40;30.00;;;;;;;-0.66;100.00;95482.73;105139;1305;22632;-77
2022/11/23 11:26:50;;;;;;;;;;;;;;;-0.63;100.00;95480.86;105145;1291;22477;-77
2022/11/23 11:29:32;;;;;;;47.50;28.90;;;;;;;-0.59;100.00;95478.67;105106;1305;22477;-77
2022/11/23 11:32:10;;;;;;;45.10;29.00;;;;;;;-0.54;100.00;95475.17;105133;1305;22479;-77
2022/11/23 11:34:47;;;;;;;47.50;28.20;;;;;;;-0.53;100.00;95471.13;105043;1290;23706;-77
2022/11/23 11:37:30;;;;;;;45.10;28.30;;;;;;;-0.53;100.00;95468.64;105112;1284;22484;-77